Aérodrome :
LOGIN :

S'inscrire | Disclaimer

   EN    FR    IT 

 










Légende :    VFR   VFR Marginal   IFR   IFR Intensif   IFR Très Intensif
Visi : 
Plafond : 
>= 8 km
>= 3000ft
5 à 8 km
1000 à 3000 ft
1500m à 5 km
500 à 1000 ft
800 à 1500m
200 à 500 ft
< 800m
< 200 ft
Symboles :   Orages  Brouillard  Fortes neiges  Fortes précipitations  Vent > 20 kt
SIGMETs :   Divers  Orages  Givrage  Turbulence  Onde Orograph.  Cendres Volcan.







- Altitude de l'aérodrome : 160 ft
- Code IATA : FMO


EDDG - Münster Osnabrück Int.

DERNIER METAR :
  • 231950Z 21013KT 180V240 9999 -RA FEW010 BKN015 08/06 Q1017 TEMPO BKN008

METARs EXPIRÉS :
  • 231920Z 21012KT 9999 BKN017 09/06 Q1017 NOSIG
  • 231850Z 20011KT 160V240 9999 BKN019 09/05 Q1017 NOSIG
  • 231820Z 19009KT 9999 BKN021 08/05 Q1017 NOSIG
  • 231750Z 18008KT 150V220 9999 BKN023 08/05 Q1018 NOSIG
  • 231720Z 19008KT 150V220 9999 BKN024 08/05 Q1018 NOSIG

TAF TAF EDDG
Valide du 23 à 18h jusqu'au 24 à 18h UTC


231700Z 2318/2418 20012KT 9999 BKN020
TEMPO 2318/2408 21015G25KT
TEMPO 2320/2403 4000 -RA BKN008
BECMG 2408/2411 20015G25KT
TEMPO 2411/2418 21020G30KT
Pas de NOTAMs connus pour ce terrain.



MET'MAP, la Météo Aéronautique d'un coup d'oeil ! - Copyright ORBIFLY Décembre 2007 - Disclaimer

ORBIFLY MET'MAP TEAM :

Programmation & Développement : Alexandra Zaïnal
Conception & Développement : Baudouin d'Aumeries
Co-Programmation & Développement : Marc-Olivier Méhu
Soutien technique & logistique : Manuel Goepfert

Contact : metmap@orbifly.com




SOURCES & CREDITS :

   NOAA